createdAt,value
2022-09-14T00:01:46.751Z,18.70
2022-09-14T00:04:19.016Z,18.70
2022-09-14T00:06:49.385Z,18.80
2022-09-14T00:09:20.480Z,18.90
2022-09-14T00:11:49.664Z,18.90
2022-09-14T00:14:20.089Z,18.90
2022-09-14T00:16:49.419Z,18.90
2022-09-14T00:19:22.192Z,18.80
2022-09-14T00:21:53.271Z,18.90
2022-09-14T00:24:23.193Z,18.80
2022-09-14T00:26:52.393Z,18.80
2022-09-14T00:29:21.634Z,18.80
2022-09-14T00:31:50.359Z,18.70
2022-09-14T00:34:21.555Z,18.80
2022-09-14T00:36:52.631Z,18.70
2022-09-14T00:39:23.723Z,18.80
2022-09-14T00:41:53.231Z,18.70
2022-09-14T00:45:13.393Z,18.70
2022-09-14T00:47:43.570Z,18.60
2022-09-14T00:50:14.254Z,18.50
2022-09-14T00:52:46.416Z,18.50
2022-09-14T00:55:18.206Z,18.60
2022-09-14T00:57:49.827Z,18.60
2022-09-14T01:00:24.458Z,18.50
2022-09-14T01:02:53.144Z,18.50
2022-09-14T01:05:29.180Z,18.40
2022-09-14T01:08:08.304Z,18.40
2022-09-14T01:11:00.408Z,18.30
2022-09-14T01:13:37.232Z,18.30
2022-09-14T01:16:26.212Z,18.20
2022-09-14T01:18:59.318Z,18.10
2022-09-14T01:21:33.594Z,18.10
2022-09-14T01:24:07.669Z,18.10
2022-09-14T01:26:59.548Z,18.00
2022-09-14T01:29:35.468Z,17.90
2022-09-14T01:32:10.142Z,17.90
2022-09-14T01:34:45.784Z,17.80
2022-09-14T01:37:19.524Z,17.70
2022-09-14T01:39:52.033Z,17.70
2022-09-14T01:42:24.780Z,17.70
2022-09-14T01:45:00.083Z,17.70
2022-09-14T01:47:38.215Z,17.60
2022-09-14T01:50:12.151Z,17.60
2022-09-14T01:52:45.807Z,17.60
2022-09-14T01:55:19.762Z,17.60
2022-09-14T01:57:53.635Z,17.60
2022-09-14T02:00:24.920Z,17.60
2022-09-14T02:02:56.944Z,17.70
2022-09-14T02:05:31.799Z,17.70
2022-09-14T02:08:00.596Z,18.10
2022-09-14T02:10:29.828Z,17.70
2022-09-14T02:12:58.884Z,17.80
2022-09-14T02:15:29.804Z,17.80
2022-09-14T02:17:58.704Z,17.80
2022-09-14T02:20:32.694Z,17.80
2022-09-14T02:23:02.647Z,17.80
2022-09-14T02:25:32.172Z,18.20
2022-09-14T02:28:01.124Z,18.50
2022-09-14T02:30:40.347Z,18.50
2022-09-14T02:33:21.699Z,18.50
2022-09-14T02:35:55.375Z,18.60
2022-09-14T02:38:32.224Z,18.50
2022-09-14T02:41:07.407Z,18.60
2022-09-14T02:43:45.682Z,18.60
2022-09-14T02:46:24.612Z,18.70
2022-09-14T02:49:03.291Z,18.60
2022-09-14T02:51:38.398Z,18.70
2022-09-14T02:54:12.909Z,18.60
2022-09-14T02:56:41.933Z,18.60
2022-09-14T02:59:10.687Z,18.70
2022-09-14T03:01:42.061Z,18.80
2022-09-14T03:04:11.188Z,18.70
2022-09-14T03:06:40.048Z,18.80
2022-09-14T03:09:10.869Z,18.80
2022-09-14T03:11:40.224Z,18.80
2022-09-14T03:14:09.156Z,18.70
2022-09-14T03:16:42.774Z,18.60
2022-09-14T03:19:13.586Z,18.60
2022-09-14T03:21:45.570Z,18.60
2022-09-14T03:24:17.064Z,18.60
2022-09-14T03:26:46.677Z,18.60
2022-09-14T03:29:16.363Z,18.50
2022-09-14T03:31:47.367Z,18.50
2022-09-14T03:34:16.183Z,18.70
2022-09-14T03:36:45.652Z,18.60
2022-09-14T03:39:14.656Z,18.60
2022-09-14T03:41:43.444Z,18.30
2022-09-14T03:44:12.532Z,18.40
2022-09-14T03:46:41.381Z,18.50
2022-09-14T03:49:11.715Z,18.80
2022-09-14T03:51:40.427Z,18.50
2022-09-14T03:54:09.998Z,18.60
2022-09-14T03:56:38.927Z,18.60
2022-09-14T03:59:10.542Z,18.50
2022-09-14T04:01:40.468Z,18.70
2022-09-14T04:04:13.002Z,18.80
2022-09-14T04:06:44.870Z,18.40
2022-09-14T04:09:15.144Z,18.10
2022-09-14T04:11:43.959Z,17.90
2022-09-14T04:14:13.330Z,17.80
2022-09-14T04:16:48.908Z,17.70
2022-09-14T04:19:20.132Z,17.70
2022-09-14T04:21:49.103Z,17.60
2022-09-14T04:24:18.409Z,17.60
2022-09-14T04:26:48.668Z,17.60
2022-09-14T04:29:17.431Z,17.50
2022-09-14T04:31:46.192Z,17.50
2022-09-14T04:34:15.478Z,17.40
2022-09-14T04:36:46.047Z,17.50
2022-09-14T04:39:15.495Z,17.30
2022-09-14T04:41:44.788Z,17.20
2022-09-14T04:44:14.179Z,17.10
2022-09-14T04:46:46.874Z,17.40
2022-09-14T04:49:19.183Z,17.00
2022-09-14T04:51:54.364Z,17.00
2022-09-14T04:54:24.810Z,16.90
2022-09-14T04:56:54.230Z,16.90
2022-09-14T04:59:23.354Z,16.80
2022-09-14T05:01:52.341Z,16.90
2022-09-14T05:04:21.220Z,16.80
2022-09-14T05:06:51.789Z,16.80
2022-09-14T05:09:24.878Z,16.50
2022-09-14T05:11:55.007Z,16.70
2022-09-14T05:14:24.231Z,16.70
2022-09-14T05:16:53.970Z,16.40
2022-09-14T05:19:23.345Z,16.60
2022-09-14T05:21:52.038Z,16.60
2022-09-14T05:24:22.717Z,16.50
2022-09-14T05:26:58.282Z,16.50
2022-09-14T05:29:30.589Z,16.50
2022-09-14T05:31:59.984Z,16.40
2022-09-14T05:34:30.295Z,16.30
2022-09-14T05:37:00.364Z,16.30
2022-09-14T05:39:31.186Z,16.30
2022-09-14T05:42:00.215Z,16.30
2022-09-14T05:44:30.483Z,16.30
2022-09-14T05:47:00.623Z,16.30
2022-09-14T05:49:29.851Z,16.30
2022-09-14T05:51:58.830Z,16.20
2022-09-14T05:54:27.892Z,16.20
2022-09-14T05:56:58.946Z,16.20
2022-09-14T05:59:31.916Z,16.10
2022-09-14T06:02:01.021Z,16.20
2022-09-14T06:04:30.121Z,16.20
2022-09-14T06:07:17.302Z,16.30
2022-09-14T06:09:47.532Z,16.20
2022-09-14T06:12:18.123Z,16.10
2022-09-14T06:14:47.573Z,15.90
2022-09-14T06:17:17.903Z,15.80
2022-09-14T06:19:47.279Z,15.70
2022-09-14T06:22:18.009Z,16.00
2022-09-14T06:24:50.243Z,15.90
2022-09-14T06:27:21.765Z,15.90
2022-09-14T06:29:54.319Z,15.80
2022-09-14T06:32:24.836Z,15.60
2022-09-14T06:34:59.002Z,15.70
2022-09-14T06:37:27.800Z,15.60
2022-09-14T06:39:57.155Z,15.50
2022-09-14T06:42:28.198Z,15.50
2022-09-14T06:44:57.898Z,15.50
2022-09-14T06:47:26.969Z,15.50
2022-09-14T06:49:57.392Z,15.40
2022-09-14T06:52:33.588Z,15.40
2022-09-14T06:55:03.721Z,15.50
2022-09-14T06:57:35.198Z,15.40
2022-09-14T07:00:08.870Z,15.50
2022-09-14T07:02:37.883Z,15.40
2022-09-14T07:05:09.356Z,15.40
2022-09-14T07:07:43.052Z,15.50
2022-09-14T07:10:14.577Z,15.50
2022-09-14T07:12:45.519Z,15.50
2022-09-14T07:15:16.174Z,15.50
2022-09-14T07:17:47.468Z,15.50
2022-09-14T07:20:18.496Z,15.50
2022-09-14T07:22:47.536Z,15.40
2022-09-14T07:25:16.852Z,15.40
2022-09-14T07:27:47.126Z,15.30
2022-09-14T07:30:17.824Z,15.30
2022-09-14T07:32:46.739Z,15.10
2022-09-14T07:35:15.656Z,15.00
2022-09-14T07:37:44.955Z,14.90
2022-09-14T07:40:14.246Z,14.90
2022-09-14T07:42:43.643Z,14.90
2022-09-14T07:45:14.530Z,14.80
2022-09-14T07:47:44.003Z,14.80
2022-09-14T07:50:12.907Z,14.80
2022-09-14T07:52:42.077Z,14.90
2022-09-14T07:55:13.886Z,14.90
2022-09-14T07:57:55.749Z,14.90
2022-09-14T08:00:27.281Z,15.00
2022-09-14T08:02:58.292Z,15.20
2022-09-14T08:05:27.969Z,15.30
2022-09-14T08:07:58.143Z,15.20
2022-09-14T08:10:27.816Z,15.30
2022-09-14T08:12:57.918Z,15.30
2022-09-14T08:15:28.843Z,15.40
2022-09-14T08:17:57.737Z,15.50
2022-09-14T08:20:27.879Z,15.40
2022-09-14T08:22:57.742Z,15.30
2022-09-14T08:25:27.425Z,15.20
2022-09-14T08:27:59.703Z,15.20
2022-09-14T08:30:31.071Z,15.10
2022-09-14T08:33:01.943Z,15.10
2022-09-14T08:35:56.647Z,15.10
2022-09-14T08:38:20.730Z,15.10
2022-09-14T08:40:51.707Z,15.20
2022-09-14T08:43:24.734Z,15.30
2022-09-14T08:46:04.062Z,15.40
2022-09-14T08:48:38.831Z,15.20
2022-09-14T08:51:08.181Z,15.20
2022-09-14T08:53:42.275Z,15.30
2022-09-14T08:56:20.219Z,15.30
2022-09-14T08:59:10.784Z,15.20
2022-09-14T09:01:51.007Z,15.10
2022-09-14T09:04:34.008Z,15.10
2022-09-14T09:07:10.229Z,15.00
2022-09-14T09:09:45.374Z,14.90
2022-09-14T09:12:18.325Z,15.10
2022-09-14T09:14:54.830Z,15.10
2022-09-14T09:17:31.405Z,15.10
2022-09-14T09:20:07.518Z,15.10
2022-09-14T09:22:43.124Z,15.20
2022-09-14T09:25:20.455Z,15.30
2022-09-14T09:27:49.730Z,15.20
2022-09-14T09:30:19.162Z,15.30
2022-09-14T09:32:51.840Z,15.20
2022-09-14T09:35:25.530Z,15.20
2022-09-14T09:37:57.333Z,15.20
2022-09-14T09:40:33.672Z,15.20
2022-09-14T09:43:18.596Z,15.20
2022-09-14T09:45:59.158Z,15.20
2022-09-14T09:48:35.326Z,15.20
2022-09-14T09:51:09.742Z,15.20
2022-09-14T09:53:48.883Z,15.30
2022-09-14T09:56:25.157Z,15.20
2022-09-14T09:58:57.369Z,15.20
2022-09-14T10:01:31.364Z,15.00
2022-09-14T10:04:18.831Z,15.10
2022-09-14T10:06:49.221Z,15.30
2022-09-14T10:09:23.572Z,15.50
2022-09-14T10:12:00.663Z,15.50
2022-09-14T10:14:34.633Z,15.60
2022-09-14T10:17:08.747Z,15.70
2022-09-14T10:19:39.596Z,15.80
2022-09-14T10:22:24.387Z,15.80
2022-09-14T10:25:00.882Z,15.70
2022-09-14T10:27:38.292Z,15.70
2022-09-14T10:30:12.671Z,15.80
2022-09-14T10:32:45.255Z,15.90
2022-09-14T10:35:18.274Z,16.00
2022-09-14T10:38:08.484Z,15.80
2022-09-14T10:40:40.295Z,15.80
2022-09-14T10:43:17.753Z,15.90
2022-09-14T10:45:53.209Z,16.00
2022-09-14T10:48:58.618Z,16.10
2022-09-14T10:51:48.525Z,16.00
2022-09-14T10:54:45.754Z,16.00
2022-09-14T10:57:25.016Z,16.00
2022-09-14T10:59:57.016Z,15.90
2022-09-14T11:02:53.748Z,16.00
2022-09-14T11:05:27.280Z,16.10
2022-09-14T11:08:09.278Z,16.20
2022-09-14T11:10:48.499Z,16.20
2022-09-14T11:13:36.390Z,16.20
2022-09-14T11:16:16.119Z,16.20
2022-09-14T11:18:53.143Z,16.20
2022-09-14T11:21:34.065Z,16.20
2022-09-14T11:24:18.670Z,16.30
2022-09-14T11:26:56.548Z,16.20
2022-09-14T11:29:29.082Z,16.10
2022-09-14T11:32:22.357Z,16.00
2022-09-14T11:34:58.389Z,15.90
2022-09-14T11:37:34.706Z,15.60
2022-09-14T11:40:11.695Z,15.80
2022-09-14T11:42:46.759Z,15.80
2022-09-14T11:45:24.696Z,15.70
2022-09-14T11:48:02.075Z,15.70
2022-09-14T11:50:33.701Z,15.60
2022-09-14T11:53:15.141Z,15.60
2022-09-14T11:55:55.395Z,15.60
2022-09-14T11:58:26.369Z,15.70
2022-09-14T12:01:33.922Z,15.60
2022-09-14T12:04:12.226Z,15.80
2022-09-14T12:06:55.634Z,15.70
2022-09-14T12:09:49.411Z,15.70
2022-09-14T12:12:39.539Z,15.70
2022-09-14T12:15:24.165Z,16.10
2022-09-14T12:17:58.463Z,15.80
2022-09-14T12:20:43.694Z,15.80
2022-09-14T12:23:39.109Z,15.80
2022-09-14T12:26:38.411Z,15.60
2022-09-14T12:29:29.338Z,15.60
2022-09-14T12:32:28.235Z,15.50
2022-09-14T12:35:34.550Z,15.40
2022-09-14T12:38:42.089Z,15.50
2022-09-14T12:41:53.530Z,15.50
2022-09-14T12:44:41.236Z,15.50
2022-09-14T12:47:51.595Z,15.60
2022-09-14T12:50:23.302Z,15.70
2022-09-14T12:53:31.923Z,15.70
2022-09-14T12:56:06.431Z,15.70
2022-09-14T12:59:08.941Z,15.50
2022-09-14T13:01:50.271Z,15.20
2022-09-14T13:04:30.464Z,15.20
2022-09-14T13:07:06.143Z,15.20
2022-09-14T13:09:36.301Z,15.30
2022-09-14T13:12:09.532Z,15.30
2022-09-14T13:14:49.608Z,15.40
2022-09-14T13:17:20.838Z,15.30
2022-09-14T13:19:58.357Z,15.40
2022-09-14T13:22:32.104Z,15.40
2022-09-14T13:25:02.566Z,15.40
2022-09-14T13:27:35.470Z,15.50
2022-09-14T13:30:07.692Z,15.60
2022-09-14T13:32:45.173Z,15.60
2022-09-14T13:35:21.319Z,15.70
2022-09-14T13:37:52.844Z,15.80
2022-09-14T13:40:26.789Z,15.60
2022-09-14T13:42:56.616Z,15.70
2022-09-14T13:45:26.250Z,15.50
2022-09-14T13:47:57.628Z,15.40
2022-09-14T13:50:27.446Z,15.30
2022-09-14T13:53:02.625Z,15.40
2022-09-14T13:55:45.901Z,15.40
2022-09-14T13:58:23.765Z,15.40
2022-09-14T14:01:05.651Z,15.50
2022-09-14T14:03:44.170Z,15.50
2022-09-14T14:06:25.503Z,15.30
2022-09-14T14:08:59.851Z,15.60
2022-09-14T14:11:32.022Z,15.70
2022-09-14T14:14:21.167Z,15.70
2022-09-14T14:17:26.340Z,15.90
2022-09-14T14:19:58.691Z,15.60
2022-09-14T14:22:30.478Z,15.90
2022-09-14T14:25:13.244Z,15.90
2022-09-14T14:27:46.446Z,15.90
2022-09-14T14:30:17.300Z,16.00
2022-09-14T14:32:52.667Z,16.10
2022-09-14T14:35:26.577Z,16.00
2022-09-14T14:37:56.453Z,15.90
2022-09-14T14:40:28.001Z,15.90
2022-09-14T14:42:59.726Z,15.80
2022-09-14T14:45:35.976Z,15.60
2022-09-14T14:48:06.951Z,15.80
2022-09-14T14:50:38.040Z,16.00
2022-09-14T14:53:09.167Z,15.90
2022-09-14T14:55:46.088Z,16.00
2022-09-14T14:58:18.821Z,16.30
2022-09-14T15:00:48.975Z,16.10
2022-09-14T15:03:19.326Z,16.20
2022-09-14T15:05:50.975Z,16.10
2022-09-14T15:08:23.701Z,16.10
2022-09-14T15:10:58.703Z,16.10
2022-09-14T15:13:29.168Z,16.10
2022-09-14T15:15:58.302Z,16.30
2022-09-14T15:18:27.766Z,16.10
2022-09-14T15:20:58.631Z,16.10
2022-09-14T15:23:27.719Z,16.00
2022-09-14T15:25:56.958Z,16.10
2022-09-14T15:28:26.228Z,16.20
2022-09-14T15:31:08.777Z,16.40
2022-09-14T15:33:38.543Z,16.40
2022-09-14T15:36:15.164Z,16.40
2022-09-14T23:11:25.454Z,14.70
2022-09-14T23:13:56.207Z,14.70
2022-09-14T23:16:31.850Z,14.90
2022-09-14T23:19:06.936Z,14.60
2022-09-14T23:21:37.341Z,14.80
2022-09-14T23:24:08.789Z,14.70
2022-09-14T23:26:58.264Z,14.40
2022-09-14T23:29:28.890Z,14.70
2022-09-14T23:31:59.199Z,14.70
2022-09-14T23:34:28.524Z,14.60
2022-09-14T23:36:58.840Z,14.60
2022-09-14T23:39:30.440Z,14.50
2022-09-14T23:42:06.470Z,14.30
2022-09-14T23:44:40.715Z,14.50
2022-09-14T23:47:10.747Z,14.50
2022-09-14T23:49:40.241Z,15.00
2022-09-14T23:52:10.237Z,14.40
2022-09-14T23:54:43.326Z,14.40
2022-09-14T23:57:16.008Z,14.50
2022-09-14T23:59:47.731Z,14.50
